Time;durP1;ratioP1;P1;durP2;ratioP2;P2;SDS_P1;SDS_P2;PMS_P1;PMS_P2;Temp;Humidity;BMP_temperature;BMP_pressure;BME280_temperature;BME280_humidity;BME280_pressure;Samples;Min_cycle;Max_cycle;Signal;HPM_P1;HPM_P2
2021/12/10 00:01:52;;;;;;;15.32;7.57;;;;;;;2.67;78.19;98726.06;4485691;32;33392;-72
2021/12/10 00:04:23;;;;;;;13.40;8.02;;;;;;;2.76;77.76;98723.91;4486138;32;33919;-72
2021/12/10 00:06:55;;;;;;;11.90;8.00;;;;;;;2.71;78.03;98718.41;4486226;32;34104;-71
2021/12/10 00:09:29;;;;;;;14.23;7.70;;;;;;;1.94;81.52;98721.37;4486367;32;34181;-72
2021/12/10 00:12:03;;;;;;;15.15;8.02;;;;;;;2.21;80.33;98720.13;4486187;32;34303;-73
2021/12/10 00:14:32;;;;;;;15.13;8.45;;;;;;;1.58;82.79;98717.56;4486303;32;33960;-73
2021/12/10 00:17:01;;;;;;;13.73;7.95;;;;;;;1.88;82.60;98707.06;4480022;32;34269;-71
2021/12/10 00:19:36;;;;;;;13.30;8.10;;;;;;;1.96;81.60;98709.44;4486056;32;33833;-72
2021/12/10 00:22:09;;;;;;;14.07;8.00;;;;;;;1.91;81.78;98721.84;4486277;32;32996;-71
2021/12/10 00:24:39;;;;;;;13.88;7.47;;;;;;;2.49;79.66;98731.41;4485756;32;34552;-72
2021/12/10 00:27:09;;;;;;;15.40;9.02;;;;;;;2.52;79.05;98739.00;4484994;32;34213;-72
2021/12/10 00:29:40;;;;;;;16.40;8.60;;;;;;;2.75;77.42;98738.34;4485975;32;33911;-72
2021/12/10 00:32:29;;;;;;;13.82;7.97;;;;;;;2.70;77.59;98744.37;4486093;32;33609;-72
2021/12/10 00:34:58;;;;;;;16.83;9.05;;;;;;;2.31;78.88;98738.38;4485874;32;33592;-72
2021/12/10 00:37:26;;;;;;;15.07;8.55;;;;;;;2.65;77.45;98736.97;4486069;32;35132;-72
2021/12/10 00:39:57;;;;;;;14.75;8.57;;;;;;;2.85;76.61;98738.63;4486033;32;34230;-80
2021/12/10 00:42:30;;;;;;;17.60;8.75;;;;;;;2.83;76.59;98741.56;4485726;32;34366;-73
2021/12/10 00:44:59;;;;;;;1.30;1.20;;;;;;;2.64;76.95;98751.44;4484805;32;34692;-72
2021/12/10 00:47:27;;;;;;;1.85;1.33;;;;;;;2.92;75.94;98746.62;4485400;32;34107;-80
2021/12/10 00:49:56;;;;;;;16.05;8.45;;;;;;;2.51;77.87;98746.22;4484517;32;33618;-73
2021/12/10 00:52:24;;;;;;;1.20;0.90;;;;;;;2.57;78.18;98742.66;4485915;32;34337;-73
2021/12/10 00:54:52;;;;;;;14.55;7.93;;;;;;;2.54;78.74;98742.28;4485704;32;33936;-73
2021/12/10 00:57:20;;;;;;;0.80;0.60;;;;;;;2.99;76.54;98742.81;4486129;32;34171;-73
2021/12/10 00:59:49;;;;;;;15.38;8.27;;;;;;;3.23;76.03;98748.28;4485649;32;33838;-72
2021/12/10 01:02:20;;;;;;;14.68;8.65;;;;;;;2.77;77.04;98749.66;4485936;32;34400;-73
2021/12/10 01:04:51;;;;;;;15.57;7.87;;;;;;;2.58;78.33;98743.47;4485607;32;34789;-71
2021/12/10 01:07:21;;;;;;;14.45;8.15;;;;;;;2.28;80.17;98741.47;4485844;32;34043;-72
2021/12/10 01:09:51;;;;;;;15.10;7.45;;;;;;;2.67;78.00;98737.59;4485681;32;34112;-80
2021/12/10 01:12:29;;;;;;;16.08;7.72;;;;;;;2.52;78.60;98730.97;4484569;32;34315;-73
2021/12/10 01:23:53;;;;;;;12.50;6.75;;;;;;;3.15;76.18;98727.16;4485286;32;34304;-72
2021/12/10 01:26:40;;;;;;;11.68;7.00;;;;;;;3.11;76.30;98736.69;4484854;32;33890;-73
2021/12/10 01:29:09;;;;;;;11.80;7.00;;;;;;;3.16;75.43;98734.97;4485763;32;34271;-72
2021/12/10 01:31:56;;;;;;;11.48;7.07;;;;;;;2.99;76.58;98734.75;4485594;32;34061;-73
2021/12/10 01:34:24;;;;;;;11.88;6.78;;;;;;;3.10;75.86;98735.87;4485515;32;33482;-73
2021/12/10 01:36:52;;;;;;;10.30;6.30;;;;;;;3.19;75.58;98747.91;4485593;32;34790;-72
2021/12/10 01:39:29;;;;;;;10.02;6.35;;;;;;;3.45;74.87;98745.94;4485434;32;35150;-72
2021/12/10 01:42:12;;;;;;;10.40;6.03;;;;;;;3.34;74.93;98755.56;4485588;32;34862;-72
2021/12/10 01:44:43;;;;;;;10.73;6.72;;;;;;;3.18;75.31;98751.66;4485579;32;34471;-73
2021/12/10 01:47:14;;;;;;;1.37;0.88;;;;;;;2.47;78.55;98755.72;4485513;32;33863;-73
2021/12/10 01:49:43;;;;;;;9.77;5.65;;;;;;;3.19;75.63;98749.78;4485374;32;33994;-72
2021/12/10 01:52:15;;;;;;;1.20;0.80;;;;;;;3.05;75.16;98741.91;4485594;32;33999;-72
2021/12/10 01:54:47;;;;;;;9.48;5.70;;;;;;;2.14;78.72;98756.84;4485105;32;33578;-77
2021/12/10 01:57:16;;;;;;;10.90;5.75;;;;;;;2.58;77.78;98754.19;4485073;32;34582;-71
2021/12/10 01:59:46;;;;;;;8.55;5.43;;;;;;;2.59;77.51;98748.63;4484008;32;35192;-72
2021/12/10 02:02:26;;;;;;;9.73;6.25;;;;;;;2.80;76.62;98739.31;4485654;32;34646;-72
2021/12/10 02:04:54;;;;;;;7.75;5.28;;;;;;;2.83;76.69;98741.56;4485522;32;33370;-73
2021/12/10 02:07:24;;;;;;;2.28;1.08;;;;;;;2.81;76.16;98745.50;4485694;32;33852;-72
2021/12/10 02:09:52;;;;;;;0.52;0.52;;;;;;;2.88;77.05;98747.03;4485201;32;34621;-72
2021/12/10 02:12:20;;;;;;;0.68;0.50;;;;;;;2.62;77.43;98739.31;4485400;32;33783;-72
2021/12/10 02:14:56;;;;;;;9.95;6.07;;;;;;;3.07;76.06;98747.88;4485378;32;33505;-72
2021/12/10 02:17:37;;;;;;;0.60;0.60;;;;;;;2.84;76.50;98745.84;4485265;32;33846;-72
2021/12/10 02:20:36;;;;;;;11.45;6.47;;;;;;;3.08;75.11;98746.00;4484805;32;34164;-71
2021/12/10 02:23:06;;;;;;;10.73;6.55;;;;;;;3.25;74.65;98744.34;4484985;31;36469;-72
2021/12/10 02:25:37;;;;;;;0.60;0.60;;;;;;;3.15;74.62;98743.22;4484739;32;34505;-74
2021/12/10 02:28:09;;;;;;;10.35;6.57;;;;;;;3.04;75.50;98744.81;4485237;32;33989;-72
2021/12/10 02:30:39;;;;;;;0.75;0.75;;;;;;;2.89;75.75;98755.91;4484908;32;35193;-72
2021/12/10 02:33:07;;;;;;;10.63;6.93;;;;;;;3.37;73.71;98754.28;4483731;32;34489;-72
2021/12/10 02:35:35;;;;;;;11.30;6.28;;;;;;;2.97;74.89;98760.16;4485416;32;34362;-71
2021/12/10 02:38:05;;;;;;;10.32;6.15;;;;;;;2.64;76.18;98756.78;4485249;32;33725;-71
2021/12/10 02:40:34;;;;;;;10.18;6.30;;;;;;;3.21;74.12;98764.59;4484827;32;34066;-72
2021/12/10 02:43:06;;;;;;;1.37;1.27;;;;;;;2.64;76.25;98761.34;4483664;32;34686;-71
2021/12/10 02:45:34;;;;;;;10.20;6.45;;;;;;;3.14;74.23;98760.38;4484710;32;33489;-72
2021/12/10 02:48:02;;;;;;;10.45;6.72;;;;;;;2.96;75.18;98758.50;4485208;32;33667;-72
2021/12/10 02:50:32;;;;;;;12.93;7.45;;;;;;;3.14;74.61;98760.38;4496717;31;35084;-71
2021/12/10 02:53:00;;;;;;;12.20;7.37;;;;;;;3.27;72.98;98752.97;4484667;32;33943;-73
2021/12/10 02:55:29;;;;;;;12.18;7.65;;;;;;;3.10;73.90;98748.47;4484817;32;33489;-71
2021/12/10 02:57:59;;;;;;;12.77;7.47;;;;;;;2.89;74.20;98742.50;4484702;32;33868;-71
2021/12/10 03:00:30;;;;;;;12.10;7.18;;;;;;;2.99;73.15;98737.44;4483270;32;34153;-72
2021/12/10 03:02:58;;;;;;;12.52;7.43;;;;;;;2.62;74.55;98734.75;4484656;32;34783;-71
2021/12/10 03:05:26;;;;;;;16.67;8.70;;;;;;;2.72;73.75;98736.94;4484833;32;33596;-71
2021/12/10 03:07:54;;;;;;;12.82;7.28;;;;;;;2.84;73.57;98742.38;4484572;32;34012;-71
2021/12/10 03:10:26;;;;;;;13.55;7.82;;;;;;;2.42;74.75;98745.69;4485269;32;34333;-72
2021/12/10 03:12:54;;;;;;;14.65;8.15;;;;;;;2.45;74.59;98747.91;4486359;32;34121;-71
2021/12/10 03:15:23;;;;;;;13.77;7.87;;;;;;;2.59;73.98;98742.41;4486620;32;33628;-71
2021/12/10 03:17:51;;;;;;;14.82;8.75;;;;;;;2.45;74.87;98742.56;4486522;32;34676;-71
2021/12/10 03:20:22;;;;;;;17.92;9.85;;;;;;;2.03;76.71;98733.44;4485108;32;34275;-71
2021/12/10 03:22:50;;;;;;;16.73;8.93;;;;;;;2.10;76.46;98736.91;4486571;32;33852;-71
2021/12/10 03:25:18;;;;;;;18.35;10.25;;;;;;;1.99;77.58;98735.75;4486607;32;33333;-71
2021/12/10 03:27:46;;;;;;;15.32;8.60;;;;;;;2.04;76.84;98738.59;4486269;32;33796;-72
2021/12/10 03:30:20;;;;;;;17.15;10.05;;;;;;;2.00;76.84;98742.72;4486583;32;34024;-72
2021/12/10 03:32:49;;;;;;;17.58;10.27;;;;;;;2.17;76.14;98742.19;4485190;32;34075;-71
2021/12/10 03:35:23;;;;;;;17.98;10.95;;;;;;;1.98;76.14;98750.16;4486688;32;33500;-72
2021/12/10 03:37:50;;;;;;;17.45;9.73;;;;;;;1.61;78.13;98751.87;4486449;32;34080;-71
2021/12/10 03:40:18;;;;;;;19.02;10.80;;;;;;;2.13;76.40;98752.50;4486250;32;34590;-72
2021/12/10 03:42:47;;;;;;;22.70;11.12;;;;;;;1.93;76.74;98763.38;4486470;32;34029;-72
2021/12/10 03:45:16;;;;;;;21.67;11.15;;;;;;;2.13;75.89;98765.09;4486404;32;34413;-71
2021/12/10 03:47:45;;;;;;;21.40;11.85;;;;;;;2.16;75.97;98756.59;4486269;32;33547;-71
2021/12/10 03:50:21;;;;;;;20.23;11.80;;;;;;;1.87;76.76;98756.22;4486233;32;34003;-76
2021/12/10 03:52:49;;;;;;;21.48;12.00;;;;;;;2.28;76.15;98760.22;4486105;32;34618;-70
2021/12/10 03:55:18;;;;;;;1.45;1.35;;;;;;;2.02;76.62;98761.25;4486279;32;33635;-81
2021/12/10 03:57:46;;;;;;;2.05;1.20;;;;;;;2.57;74.89;98760.56;4484977;32;33795;-69
2021/12/10 04:00:17;;;;;;;24.00;12.55;;;;;;;2.68;74.31;98767.88;4485979;32;34185;-69
2021/12/10 04:02:45;;;;;;;22.23;12.65;;;;;;;2.61;74.06;98762.59;4486206;32;34246;-70
2021/12/10 04:05:12;;;;;;;1.95;1.75;;;;;;;2.44;74.81;98761.50;4486454;32;33634;-70
2021/12/10 04:07:40;;;;;;;22.13;12.07;;;;;;;2.68;74.38;98762.53;4486351;32;34731;-70
2021/12/10 04:10:10;;;;;;;21.25;12.68;;;;;;;2.69;74.64;98757.97;4486462;32;35157;-70
2021/12/10 04:12:38;;;;;;;1.92;1.77;;;;;;;2.10;76.47;98769.00;4485056;32;33601;-70
2021/12/10 04:15:07;;;;;;;21.15;12.37;;;;;;;2.50;75.26;98767.84;4484792;32;33875;-71
2021/12/10 04:17:37;;;;;;;1.75;1.12;;;;;;;2.34;75.88;98761.22;4484899;32;34790;-70
2021/12/10 04:20:07;;;;;;;25.55;13.18;;;;;;;2.55;75.02;98774.19;4480715;32;170779;-69
2021/12/10 04:22:35;;;;;;;22.15;12.48;;;;;;;2.81;73.39;98777.66;4485103;32;34492;-70
2021/12/10 04:25:07;;;;;;;26.60;13.80;;;;;;;2.64;73.41;98777.41;4486058;32;33374;-69
2021/12/10 04:27:36;;;;;;;24.58;12.80;;;;;;;2.84;72.89;98785.22;4485590;32;34602;-70
2021/12/10 04:30:05;;;;;;;1.50;1.40;;;;;;;2.70;73.02;98789.06;4486139;32;34225;-70
2021/12/10 04:32:33;;;;;;;28.48;15.35;;;;;;;2.56;73.20;98789.19;4484759;32;33942;-70
2021/12/10 04:35:00;;;;;;;3.70;1.85;;;;;;;2.67;72.99;98785.78;4485945;32;33542;-71
2021/12/10 04:37:28;;;;;;;22.10;13.00;;;;;;;2.49;73.67;98793.81;4485919;32;33641;-70
2021/12/10 04:39:55;;;;;;;26.02;13.68;;;;;;;2.04;74.98;98791.28;4486065;32;33934;-70
2021/12/10 04:42:24;;;;;;;25.02;12.85;;;;;;;2.56;73.29;98802.59;4484657;32;33869;-70
2021/12/10 04:44:54;;;;;;;24.58;13.55;;;;;;;2.12;75.13;98799.06;4486176;32;34164;-70
2021/12/10 04:47:22;;;;;;;0.70;0.70;;;;;;;2.01;75.55;98807.78;4486041;32;33739;-71
2021/12/10 04:49:49;;;;;;;26.05;14.18;;;;;;;2.62;73.66;98807.06;4484621;32;34239;-70
2021/12/10 04:52:18;;;;;;;27.42;14.25;;;;;;;2.79;73.31;98804.66;4484841;32;34212;-70
2021/12/10 04:54:45;;;;;;;26.73;14.40;;;;;;;3.00;71.99;98808.75;4484421;32;34629;-70
2021/12/10 04:57:15;;;;;;;29.12;14.48;;;;;;;2.88;72.47;98814.03;4485529;32;34641;-71
2021/12/10 04:59:43;;;;;;;30.23;15.48;;;;;;;2.63;73.37;98823.94;4486097;32;34078;-70
2021/12/10 05:02:13;;;;;;;26.92;14.93;;;;;;;2.62;73.17;98828.50;4480664;32;33930;-70
2021/12/10 05:04:43;;;;;;;1.75;1.25;;;;;;;3.01;72.12;98845.22;4469402;32;33998;-69
2021/12/10 05:07:15;;;;;;;27.65;14.75;;;;;;;2.85;72.29;98845.78;4470056;32;34740;-71
2021/12/10 05:09:42;;;;;;;28.00;15.18;;;;;;;2.76;72.94;98833.72;4468788;32;33963;-70
2021/12/10 05:12:10;;;;;;;32.15;15.70;;;;;;;2.99;72.51;98836.59;4470127;32;33742;-71
2021/12/10 05:14:38;;;;;;;1.87;1.10;;;;;;;2.29;74.69;98830.62;4469151;32;34367;-71
2021/12/10 05:17:08;;;;;;;30.35;14.60;;;;;;;2.64;73.57;98831.78;4469719;32;33947;-71
2021/12/10 05:19:37;;;;;;;28.80;15.82;;;;;;;2.41;74.51;98832.38;4468794;32;33967;-69
2021/12/10 05:22:07;;;;;;;31.12;14.60;;;;;;;2.71;73.48;98830.91;4470006;32;34459;-70
2021/12/10 05:24:35;;;;;;;30.10;15.75;;;;;;;2.92;72.87;98830.47;4469954;32;34136;-71
2021/12/10 05:27:03;;;;;;;2.58;2.37;;;;;;;2.85;73.26;98835.91;4470091;32;34362;-70
2021/12/10 05:29:30;;;;;;;1.25;1.10;;;;;;;2.61;74.04;98834.06;4469744;32;34166;-71
2021/12/10 05:31:59;;;;;;;34.45;17.05;;;;;;;3.01;72.44;98834.50;4469792;32;33878;-70
2021/12/10 05:34:27;;;;;;;1.73;1.62;;;;;;;2.89;73.12;98825.56;4468794;32;33472;-70
2021/12/10 05:36:56;;;;;;;1.65;1.55;;;;;;;1.91;76.73;98816.28;4469985;32;34637;-70
2021/12/10 05:39:24;;;;;;;31.80;17.30;;;;;;;2.80;74.22;98842.97;4469694;32;34071;-77
2021/12/10 05:41:52;;;;;;;31.73;16.50;;;;;;;3.29;71.85;98842.03;4469770;32;34024;-70
2021/12/10 05:44:20;;;;;;;1.62;1.45;;;;;;;2.87;73.48;98836.50;4480388;32;34478;-70
2021/12/10 05:46:48;;;;;;;28.92;15.65;;;;;;;3.13;72.54;98834.56;4471280;32;33351;-69
2021/12/10 05:49:15;;;;;;;29.20;16.17;;;;;;;2.73;73.69;98826.94;4483902;32;33564;-70
2021/12/10 05:51:43;;;;;;;4.50;1.80;;;;;;;3.10;72.88;98829.66;4485392;32;34739;-70
2021/12/10 05:54:11;;;;;;;28.95;16.92;;;;;;;3.10;73.31;98834.22;4484033;32;31943;-70
2021/12/10 05:56:39;;;;;;;1.77;1.05;;;;;;;3.19;72.54;98824.84;4485468;32;33972;-70
2021/12/10 05:59:06;;;;;;;33.15;18.20;;;;;;;3.57;71.34;98831.81;4484692;32;34650;-70
2021/12/10 06:01:34;;;;;;;32.13;17.35;;;;;;;3.64;70.47;98835.22;4485224;32;34770;-71
2021/12/10 06:04:02;;;;;;;37.75;17.58;;;;;;;3.41;71.38;98819.81;4485347;32;33473;-70
2021/12/10 06:06:32;;;;;;;80.80;36.58;;;;;;;3.17;72.53;98808.97;4485305;32;33742;-70
2021/12/10 06:09:04;;;;;;;70.50;31.52;;;;;;;3.44;71.48;98809.47;4483927;32;34229;-70
2021/12/10 06:11:31;;;;;;;64.75;28.87;;;;;;;3.08;72.95;98799.59;4485088;32;34651;-72
2021/12/10 06:13:59;;;;;;;40.95;19.67;;;;;;;3.10;73.00;98812.78;4483578;32;33409;-71
2021/12/10 06:16:28;;;;;;;42.88;20.10;;;;;;;3.68;71.04;98810.41;4479248;32;33840;-71
2021/12/10 06:18:57;;;;;;;38.47;18.95;;;;;;;3.25;72.23;98799.81;4484854;32;34842;-71
2021/12/10 06:21:25;;;;;;;33.03;18.15;;;;;;;3.22;72.69;98798.41;4483578;32;33450;-71
2021/12/10 06:23:52;;;;;;;30.95;16.02;;;;;;;3.35;72.24;98797.44;4483934;32;33116;-69
2021/12/10 06:26:20;;;;;;;32.38;16.52;;;;;;;3.31;72.60;98795.44;4484316;32;33791;-71
2021/12/10 06:28:48;;;;;;;33.42;17.77;;;;;;;3.27;72.73;98792.38;4482809;32;34033;-70
2021/12/10 06:31:17;;;;;;;33.25;16.87;;;;;;;3.16;73.25;98790.44;4483298;32;33881;-70
2021/12/10 06:33:45;;;;;;;38.92;20.73;;;;;;;3.19;73.15;98792.66;4483362;32;34469;-70
2021/12/10 06:36:13;;;;;;;40.30;21.58;;;;;;;3.62;71.37;98781.00;4483344;32;33759;-71
2021/12/10 06:38:41;;;;;;;40.97;22.25;;;;;;;3.43;71.98;98794.41;4483342;32;35151;-70
2021/12/10 06:41:10;;;;;;;36.00;19.95;;;;;;;3.27;72.79;98793.19;4483337;32;33841;-71
2021/12/10 06:43:38;;;;;;;37.83;18.35;;;;;;;3.46;72.29;98804.72;4483028;32;32782;-70
2021/12/10 06:46:06;;;;;;;4.53;2.03;;;;;;;3.07;73.54;98793.41;4482949;32;34050;-72
2021/12/10 06:48:35;;;;;;;33.65;17.85;;;;;;;3.93;70.51;98796.03;4473704;32;34938;-71
2021/12/10 06:51:09;;;;;;;38.65;22.80;;;;;;;4.24;68.86;98799.50;4483736;32;33938;-70
2021/12/10 06:53:39;;;;;;;36.05;22.90;;;;;;;3.16;72.74;98801.97;4469725;32;33261;-70
2021/12/10 06:56:07;;;;;;;33.65;17.40;;;;;;;3.38;72.20;98810.38;4481989;32;33869;-72
2021/12/10 06:58:35;;;;;;;32.25;18.98;;;;;;;3.76;70.75;98811.13;4482071;32;34933;-69
2021/12/10 07:01:12;;;;;;;33.47;19.00;;;;;;;3.25;72.67;98810.53;4483507;32;33725;-69
2021/12/10 07:03:41;;;;;;;34.65;18.08;;;;;;;3.79;70.69;98816.03;4483207;32;33517;-68
2021/12/10 07:06:09;;;;;;;36.47;18.70;;;;;;;3.42;71.98;98808.88;4483096;32;34735;-69
2021/12/10 07:08:40;;;;;;;2.22;1.87;;;;;;;3.69;71.37;98806.69;4481703;32;34212;-68
2021/12/10 07:11:11;;;;;;;46.58;27.10;;;;;;;4.24;68.66;98804.84;4483307;32;34051;-68
2021/12/10 07:13:41;;;;;;;34.95;19.02;;;;;;;3.75;70.47;98815.69;4481564;32;33601;-68
2021/12/10 07:16:10;;;;;;;33.85;19.83;;;;;;;3.15;72.78;98807.56;4480655;32;34773;-67
2021/12/10 07:18:38;;;;;;;36.47;17.70;;;;;;;3.95;69.81;98804.66;4482241;32;33966;-68
2021/12/10 07:21:07;;;;;;;30.73;17.70;;;;;;;3.84;70.17;98795.53;4483038;32;34766;-67
2021/12/10 07:23:37;;;;;;;30.95;17.33;;;;;;;3.52;71.62;98791.44;4481273;32;34438;-68
2021/12/10 07:26:05;;;;;;;32.92;18.15;;;;;;;3.49;72.28;98798.88;4483494;32;33899;-67
2021/12/10 07:28:32;;;;;;;2.58;2.03;;;;;;;4.01;70.85;98790.31;4482928;32;34306;-66
2021/12/10 07:31:01;;;;;;;35.17;19.35;;;;;;;4.30;68.70;98796.69;4482263;32;34373;-67
2021/12/10 07:33:29;;;;;;;32.88;17.98;;;;;;;3.65;71.26;98792.09;4492711;31;34422;-66
2021/12/10 07:35:57;;;;;;;30.73;16.58;;;;;;;3.64;71.97;98787.75;4482620;32;34558;-66
2021/12/10 07:38:25;;;;;;;29.25;16.70;;;;;;;3.81;72.18;98774.53;4481064;32;33922;-66
2021/12/10 07:40:53;;;;;;;27.73;15.05;;;;;;;3.58;72.48;98775.25;4482875;32;33873;-70
2021/12/10 07:43:20;;;;;;;31.77;16.80;;;;;;;3.81;71.92;98777.22;4494154;31;34191;-67
2021/12/10 07:45:51;;;;;;;32.88;17.10;;;;;;;3.70;72.16;98776.13;4481087;32;33128;-70
2021/12/10 07:48:22;;;;;;;26.70;15.57;;;;;;;4.01;70.49;98771.53;4482602;32;33842;-65
2021/12/10 07:50:58;;;;;;;26.65;15.30;;;;;;;3.90;70.76;98772.34;4482467;32;34002;-66
2021/12/10 07:53:31;;;;;;;26.83;15.90;;;;;;;4.16;69.95;98762.22;4482297;32;33257;-66
2021/12/10 07:56:01;;;;;;;31.65;19.45;;;;;;;4.26;69.38;98754.44;4482354;32;34582;-68
2021/12/10 07:58:30;;;;;;;1.60;1.50;;;;;;;4.38;68.64;98749.06;4496085;31;34240;-66
2021/12/10 08:00:59;;;;;;;29.83;17.85;;;;;;;4.80;67.12;98754.31;4484203;32;34078;-67
2021/12/10 08:03:27;;;;;;;32.90;18.80;;;;;;;4.34;68.56;98740.62;4483353;32;34233;-68
2021/12/10 08:05:55;;;;;;;29.67;18.17;;;;;;;3.80;70.29;98746.06;4484734;32;33706;-65
2021/12/10 08:08:22;;;;;;;30.17;16.42;;;;;;;3.49;72.08;98739.88;4484503;32;34153;-65
2021/12/10 08:10:50;;;;;;;32.13;17.80;;;;;;;3.57;71.40;98737.94;4484749;32;33699;-65
2021/12/10 08:13:22;;;;;;;28.73;15.57;;;;;;;3.97;69.28;98750.75;4484750;32;34597;-70
2021/12/10 08:15:50;;;;;;;30.60;16.40;;;;;;;3.75;70.41;98745.91;4483260;32;34700;-68
2021/12/10 08:18:19;;;;;;;29.42;16.05;;;;;;;4.17;67.91;98747.75;4484624;32;35042;-65
2021/12/10 08:20:47;;;;;;;28.42;16.27;;;;;;;3.54;70.29;98749.13;4484746;32;33889;-65
2021/12/10 08:23:15;;;;;;;35.42;18.33;;;;;;;3.64;70.81;98760.13;4484253;32;33326;-69
2021/12/10 08:25:42;;;;;;;34.25;18.85;;;;;;;2.14;77.35;98761.34;4484670;32;34589;-67
2021/12/10 08:28:10;;;;;;;2.22;1.52;;;;;;;2.85;73.83;98760.06;4484940;32;34742;-65
2021/12/10 08:30:38;;;;;;;39.45;20.77;;;;;;;3.22;72.12;98760.88;4484445;32;34596;-68
2021/12/10 08:33:12;;;;;;;35.88;18.95;;;;;;;2.98;73.44;98769.81;4483420;32;33254;-65
2021/12/10 08:35:43;;;;;;;35.55;19.77;;;;;;;3.21;72.38;98774.50;4483300;32;33803;-78
2021/12/10 08:38:11;;;;;;;38.50;19.05;;;;;;;2.45;76.34;98771.19;4482679;32;34936;-76
2021/12/10 08:40:45;;;;;;;39.67;19.55;;;;;;;2.35;77.40;98773.53;4484534;32;33904;-81
2021/12/10 08:43:12;;;;;;;42.10;20.23;;;;;;;1.95;78.07;98769.31;4484514;32;33644;-75
2021/12/10 08:45:41;;;;;;;36.95;19.08;;;;;;;2.18;77.38;98767.91;4484236;32;33873;-71
2021/12/10 08:48:09;;;;;;;3.55;2.35;;;;;;;2.42;76.33;98771.63;4484518;32;34178;-72
2021/12/10 08:50:38;;;;;;;38.00;18.92;;;;;;;2.44;76.25;98766.84;4483931;32;33456;-77
2021/12/10 08:53:12;;;;;;;1.42;1.33;;;;;;;2.69;76.08;98766.03;4484565;32;34292;-71
2021/12/10 08:55:47;;;;;;;35.05;18.27;;;;;;;2.42;75.18;98764.41;4496004;31;34665;-75
2021/12/10 08:58:15;;;;;;;34.03;17.90;;;;;;;2.07;77.73;98763.28;4484334;32;34923;-75
2021/12/10 09:00:48;;;;;;;32.25;15.93;;;;;;;2.28;77.86;98764.75;4484155;32;34173;-77
2021/12/10 09:03:36;;;;;;;1.87;1.77;;;;;;;2.96;74.62;98758.50;4483044;32;33479;-77
2021/12/10 09:06:06;;;;;;;29.98;15.95;;;;;;;3.52;71.54;98762.78;4484480;32;34748;-78
2021/12/10 09:08:35;;;;;;;29.20;15.88;;;;;;;3.74;71.50;98759.56;4476242;32;34284;-72
2021/12/10 09:11:04;;;;;;;27.87;15.70;;;;;;;3.80;71.47;98767.53;4468757;32;34066;-68
2021/12/10 09:13:32;;;;;;;29.83;16.58;;;;;;;3.82;71.97;98765.44;4468813;32;33361;-68
2021/12/10 09:16:03;;;;;;;27.25;15.40;;;;;;;4.01;71.50;98771.53;4468291;32;34830;-67
2021/12/10 09:18:31;;;;;;;31.90;16.62;;;;;;;4.25;71.55;98774.25;4467375;32;34371;-65
2021/12/10 09:21:01;;;;;;;29.58;16.02;;;;;;;4.21;69.56;98775.78;4455150;32;34096;-73
2021/12/10 09:23:29;;;;;;;29.42;15.60;;;;;;;4.45;68.80;98769.41;4467259;32;33341;-67
2021/12/10 09:26:00;;;;;;;25.92;14.50;;;;;;;4.26;69.71;98778.59;4468509;32;33927;-66
2021/12/10 09:28:28;;;;;;;27.35;14.57;;;;;;;4.18;69.57;98777.06;4467670;32;33929;-66
2021/12/10 09:30:58;;;;;;;29.33;14.93;;;;;;;4.07;70.04;98772.50;4468280;32;33748;-66
2021/12/10 09:33:26;;;;;;;30.15;14.77;;;;;;;4.11;70.01;98771.78;4467337;32;33156;-67
2021/12/10 09:35:54;;;;;;;26.48;14.38;;;;;;;4.46;69.34;98776.38;4480331;32;33551;-69
2021/12/10 09:38:24;;;;;;;29.63;14.57;;;;;;;4.88;67.67;98767.38;4468558;32;33809;-70
2021/12/10 09:40:57;;;;;;;24.12;14.00;;;;;;;4.74;68.48;98769.50;4468537;32;34623;-73
2021/12/10 09:43:25;;;;;;;22.80;13.75;;;;;;;4.06;71.16;98777.06;4480005;32;33821;-70
2021/12/10 09:45:54;;;;;;;25.40;13.82;;;;;;;4.31;68.38;98773.34;4468243;32;33960;-68
2021/12/10 09:48:22;;;;;;;25.55;13.55;;;;;;;4.39;69.05;98778.38;4480520;32;34299;-75
2021/12/10 09:50:57;;;;;;;23.80;13.43;;;;;;;4.77;67.84;98770.91;4479951;32;34360;-68
2021/12/10 09:53:26;;;;;;;24.50;13.27;;;;;;;4.73;67.52;98763.31;4467281;32;34607;-66
2021/12/10 09:55:55;;;;;;;22.87;12.45;;;;;;;4.80;66.29;98765.87;4468351;32;33631;-67
2021/12/10 09:58:23;;;;;;;24.55;13.15;;;;;;;4.97;65.42;98763.28;4468407;32;35203;-66
2021/12/10 10:00:55;;;;;;;21.95;12.90;;;;;;;4.64;68.38;98777.31;4468179;32;33793;-69
2021/12/10 10:03:26;;;;;;;21.98;12.40;;;;;;;4.65;68.87;98779.78;4468193;32;34305;-67
2021/12/10 10:05:54;;;;;;;19.15;10.85;;;;;;;5.19;66.38;98779.59;4468611;32;34868;-69
2021/12/10 10:08:25;;;;;;;20.60;11.63;;;;;;;4.47;67.81;98771.81;4467089;32;33981;-66
2021/12/10 10:10:56;;;;;;;17.20;9.63;;;;;;;5.05;65.54;98772.84;4466826;32;33875;-66
2021/12/10 10:13:27;;;;;;;11.57;6.53;;;;;;;4.87;66.52;98784.56;4468408;32;34076;-69
2021/12/10 10:15:57;;;;;;;11.80;7.55;;;;;;;4.82;63.05;98776.41;4467770;32;34007;-67
2021/12/10 10:18:27;;;;;;;11.85;7.37;;;;;;;4.02;66.75;98770.50;4466953;32;34157;-67
2021/12/10 10:20:59;;;;;;;11.73;6.75;;;;;;;4.52;63.82;98769.28;4467172;32;34446;-67
2021/12/10 10:23:27;;;;;;;11.80;7.03;;;;;;;4.73;63.11;98766.00;4467906;32;34347;-67
2021/12/10 10:25:58;;;;;;;0.93;0.70;;;;;;;3.72;68.45;98770.53;4468164;32;33847;-80
2021/12/10 10:28:27;;;;;;;13.65;7.85;;;;;;;3.82;68.63;98764.59;4468149;32;34124;-72
2021/12/10 10:31:03;;;;;;;15.07;9.23;;;;;;;4.22;66.57;98755.94;4467791;32;33539;-76
2021/12/10 10:33:34;;;;;;;16.15;9.65;;;;;;;4.63;65.61;98749.66;4468125;32;34499;-69
2021/12/10 10:36:07;;;;;;;17.20;9.68;;;;;;;4.31;67.41;98738.44;4467888;32;33908;-67
2021/12/10 10:38:34;;;;;;;19.85;12.80;;;;;;;4.48;67.22;98741.25;4469292;32;34319;-72
2021/12/10 10:41:07;;;;;;;23.35;12.77;;;;;;;4.28;68.49;98728.16;4469155;32;34173;-81
2021/12/10 10:43:35;;;;;;;25.85;13.52;;;;;;;4.34;69.30;98726.41;4468695;32;33303;-68
2021/12/10 10:46:04;;;;;;;28.00;16.37;;;;;;;3.85;71.25;98723.91;4469025;32;34041;-76
2021/12/10 10:48:31;;;;;;;28.55;16.37;;;;;;;3.73;72.54;98718.50;4467729;32;34854;-71
2021/12/10 10:51:09;;;;;;;28.80;16.17;;;;;;;4.19;70.99;98718.81;4468657;32;33582;-70
2021/12/10 10:53:45;;;;;;;31.87;18.83;;;;;;;4.62;67.91;98712.25;4468953;32;33317;-70
2021/12/10 10:56:19;;;;;;;32.42;19.17;;;;;;;3.93;71.03;98703.97;4482695;32;35075;-72
2021/12/10 10:58:56;;;;;;;32.92;17.92;;;;;;;3.99;72.23;98698.47;4484456;32;34356;-73
2021/12/10 11:01:34;;;;;;;33.75;18.60;;;;;;;4.15;71.48;98701.53;4484386;32;34094;-73
2021/12/10 11:04:32;;;;;;;35.25;19.52;;;;;;;4.44;70.53;98705.97;4484228;32;33694;-68
2021/12/10 11:07:24;;;;;;;36.60;20.58;;;;;;;4.37;69.18;98696.41;4484405;32;32438;-68
2021/12/10 11:09:59;;;;;;;35.72;19.60;;;;;;;4.00;70.65;98696.63;4476732;32;34115;-68
2021/12/10 11:12:31;;;;;;;35.47;20.45;;;;;;;4.24;70.62;98692.09;4483450;32;34060;-69
2021/12/10 11:15:01;;;;;;;40.25;21.37;;;;;;;3.33;73.46;98689.59;4483987;32;33316;-67
2021/12/10 11:17:30;;;;;;;37.38;21.42;;;;;;;4.30;70.42;98691.97;4484312;32;33937;-68
2021/12/10 11:20:16;;;;;;;36.75;20.67;;;;;;;4.40;70.64;98683.31;4483989;32;33896;-68
2021/12/10 11:22:50;;;;;;;35.75;20.42;;;;;;;4.25;70.86;98672.25;4484353;32;34609;-71
2021/12/10 11:25:25;;;;;;;35.85;20.27;;;;;;;4.19;70.24;98676.69;4484162;32;33481;-72
2021/12/10 11:28:06;;;;;;;2.08;1.77;;;;;;;4.47;70.45;98684.03;4484099;32;34690;-71
2021/12/10 11:30:34;;;;;;;35.70;20.62;;;;;;;4.08;72.06;98688.22;4483893;32;35193;-68
2021/12/10 11:33:11;;;;;;;36.92;20.80;;;;;;;3.84;73.11;98682.81;4484790;32;33837;-68
2021/12/10 11:35:46;;;;;;;42.00;21.90;;;;;;;4.21;71.97;98677.28;4485191;32;33908;-70
2021/12/10 11:38:15;;;;;;;41.05;21.67;;;;;;;4.78;69.49;98678.50;4486118;32;34035;-70
2021/12/10 11:41:05;;;;;;;37.65;21.58;;;;;;;3.46;74.08;98684.03;4486133;32;34661;-68
2021/12/10 11:44:17;;;;;;;40.70;22.02;;;;;;;4.48;69.76;98682.97;4485701;32;34685;-71
2021/12/10 11:47:01;;;;;;;39.88;22.45;;;;;;;3.41;74.20;98673.19;4486094;32;33557;-70
2021/12/10 11:49:33;;;;;;;2.28;1.95;;;;;;;3.76;72.23;98679.66;4483536;32;34018;-69
2021/12/10 11:52:09;;;;;;;38.42;22.08;;;;;;;3.27;75.26;98682.47;4485694;32;34721;-68
2021/12/10 11:54:46;;;;;;;36.10;20.45;;;;;;;3.18;75.18;98679.28;4485159;32;34660;-69